sensor_id;sensor_type;location;lat;lon;timestamp;P1;durP1;ratioP1;P2;durP2;ratioP2
22336;SDS011;14992;50.844;4.418;2023-06-22T00:01:55;4.35;;;2.65;;
22336;SDS011;14992;50.844;4.418;2023-06-22T00:04:25;3.67;;;2.70;;
22336;SDS011;14992;50.844;4.418;2023-06-22T00:06:55;5.25;;;2.67;;
22336;SDS011;14992;50.844;4.418;2023-06-22T00:09:26;4.50;;;2.95;;
22336;SDS011;14992;50.844;4.418;2023-06-22T00:11:55;7.53;;;2.90;;
22336;SDS011;14992;50.844;4.418;2023-06-22T00:14:24;4.00;;;2.72;;
22336;SDS011;14992;50.844;4.418;2023-06-22T00:16:53;4.53;;;2.72;;
22336;SDS011;14992;50.844;4.418;2023-06-22T00:19:25;6.05;;;3.17;;
22336;SDS011;14992;50.844;4.418;2023-06-22T00:21:54;4.32;;;2.90;;
22336;SDS011;14992;50.844;4.418;2023-06-22T00:24:27;5.63;;;3.22;;
22336;SDS011;14992;50.844;4.418;2023-06-22T00:26:56;5.25;;;3.25;;
22336;SDS011;14992;50.844;4.418;2023-06-22T00:29:25;5.20;;;2.83;;
22336;SDS011;14992;50.844;4.418;2023-06-22T00:31:55;4.80;;;3.15;;
22336;SDS011;14992;50.844;4.418;2023-06-22T00:34:26;3.97;;;3.33;;
22336;SDS011;14992;50.844;4.418;2023-06-22T00:36:54;5.07;;;3.13;;
22336;SDS011;14992;50.844;4.418;2023-06-22T00:39:23;4.05;;;3.40;;
22336;SDS011;14992;50.844;4.418;2023-06-22T00:41:52;5.40;;;3.83;;
22336;SDS011;14992;50.844;4.418;2023-06-22T00:44:21;6.22;;;3.55;;
22336;SDS011;14992;50.844;4.418;2023-06-22T00:46:54;4.82;;;3.67;;
22336;SDS011;14992;50.844;4.418;2023-06-22T00:49:26;5.50;;;3.15;;
22336;SDS011;14992;50.844;4.418;2023-06-22T00:51:57;4.95;;;3.15;;
22336;SDS011;14992;50.844;4.418;2023-06-22T00:54:26;4.45;;;3.28;;
22336;SDS011;14992;50.844;4.418;2023-06-22T00:56:56;4.80;;;3.08;;
22336;SDS011;14992;50.844;4.418;2023-06-22T00:59:27;5.97;;;3.90;;
22336;SDS011;14992;50.844;4.418;2023-06-22T01:01:56;6.97;;;3.55;;
22336;SDS011;14992;50.844;4.418;2023-06-22T01:04:35;5.20;;;3.85;;
22336;SDS011;14992;50.844;4.418;2023-06-22T01:07:08;7.05;;;3.95;;
22336;SDS011;14992;50.844;4.418;2023-06-22T01:09:47;5.18;;;3.75;;
22336;SDS011;14992;50.844;4.418;2023-06-22T01:12:23;5.13;;;3.53;;
22336;SDS011;14992;50.844;4.418;2023-06-22T01:14:55;6.45;;;4.03;;
22336;SDS011;14992;50.844;4.418;2023-06-22T01:17:31;5.03;;;3.42;;
22336;SDS011;14992;50.844;4.418;2023-06-22T01:20:03;6.40;;;3.72;;
22336;SDS011;14992;50.844;4.418;2023-06-22T01:22:38;7.70;;;3.97;;
22336;SDS011;14992;50.844;4.418;2023-06-22T01:25:18;5.88;;;3.92;;
22336;SDS011;14992;50.844;4.418;2023-06-22T01:27:51;5.78;;;3.92;;
22336;SDS011;14992;50.844;4.418;2023-06-22T01:33:03;7.60;;;4.18;;
22336;SDS011;14992;50.844;4.418;2023-06-22T01:35:34;6.38;;;4.47;;
22336;SDS011;14992;50.844;4.418;2023-06-22T01:38:03;5.97;;;4.20;;
22336;SDS011;14992;50.844;4.418;2023-06-22T01:40:33;5.80;;;3.83;;
22336;SDS011;14992;50.844;4.418;2023-06-22T01:43:02;5.35;;;3.70;;
22336;SDS011;14992;50.844;4.418;2023-06-22T01:45:36;6.32;;;3.83;;
22336;SDS011;14992;50.844;4.418;2023-06-22T01:48:05;5.57;;;3.65;;
22336;SDS011;14992;50.844;4.418;2023-06-22T01:50:35;6.47;;;3.92;;
22336;SDS011;14992;50.844;4.418;2023-06-22T01:53:04;6.30;;;3.92;;
22336;SDS011;14992;50.844;4.418;2023-06-22T01:55:33;6.00;;;4.20;;
22336;SDS011;14992;50.844;4.418;2023-06-22T01:58:02;6.35;;;4.05;;
22336;SDS011;14992;50.844;4.418;2023-06-22T02:00:33;6.32;;;3.83;;
22336;SDS011;14992;50.844;4.418;2023-06-22T02:03:10;6.20;;;4.20;;
22336;SDS011;14992;50.844;4.418;2023-06-22T02:05:44;6.90;;;4.13;;
22336;SDS011;14992;50.844;4.418;2023-06-22T02:08:17;6.97;;;4.43;;
22336;SDS011;14992;50.844;4.418;2023-06-22T02:10:49;8.40;;;4.78;;
22336;SDS011;14992;50.844;4.418;2023-06-22T02:13:20;6.50;;;4.18;;
22336;SDS011;14992;50.844;4.418;2023-06-22T02:15:49;7.88;;;4.82;;
22336;SDS011;14992;50.844;4.418;2023-06-22T02:18:20;6.75;;;4.28;;
22336;SDS011;14992;50.844;4.418;2023-06-22T02:20:49;6.07;;;3.97;;
22336;SDS011;14992;50.844;4.418;2023-06-22T02:23:18;5.22;;;3.95;;
22336;SDS011;14992;50.844;4.418;2023-06-22T02:25:47;7.78;;;4.75;;
22336;SDS011;14992;50.844;4.418;2023-06-22T02:28:16;5.95;;;4.28;;
22336;SDS011;14992;50.844;4.418;2023-06-22T02:30:45;6.72;;;4.13;;
22336;SDS011;14992;50.844;4.418;2023-06-22T02:33:14;5.95;;;4.50;;
22336;SDS011;14992;50.844;4.418;2023-06-22T02:35:47;8.35;;;4.32;;
22336;SDS011;14992;50.844;4.418;2023-06-22T02:38:16;6.05;;;4.43;;
22336;SDS011;14992;50.844;4.418;2023-06-22T02:40:48;9.05;;;5.38;;
22336;SDS011;14992;50.844;4.418;2023-06-22T02:43:17;7.47;;;4.40;;
22336;SDS011;14992;50.844;4.418;2023-06-22T02:45:45;7.40;;;5.20;;
22336;SDS011;14992;50.844;4.418;2023-06-22T02:48:16;7.90;;;4.38;;
22336;SDS011;14992;50.844;4.418;2023-06-22T02:50:45;6.80;;;5.35;;
22336;SDS011;14992;50.844;4.418;2023-06-22T02:53:15;7.75;;;4.82;;
22336;SDS011;14992;50.844;4.418;2023-06-22T02:55:46;6.78;;;4.30;;
22336;SDS011;14992;50.844;4.418;2023-06-22T02:58:15;6.63;;;4.30;;
22336;SDS011;14992;50.844;4.418;2023-06-22T03:00:44;6.70;;;5.25;;
22336;SDS011;14992;50.844;4.418;2023-06-22T03:03:13;7.28;;;4.78;;
22336;SDS011;14992;50.844;4.418;2023-06-22T03:05:42;7.30;;;4.75;;
22336;SDS011;14992;50.844;4.418;2023-06-22T03:08:13;7.13;;;4.90;;
22336;SDS011;14992;50.844;4.418;2023-06-22T03:10:46;8.95;;;5.20;;
22336;SDS011;14992;50.844;4.418;2023-06-22T03:13:15;10.60;;;4.97;;
22336;SDS011;14992;50.844;4.418;2023-06-22T03:15:44;7.35;;;5.03;;
22336;SDS011;14992;50.844;4.418;2023-06-22T03:18:13;7.65;;;5.38;;
22336;SDS011;14992;50.844;4.418;2023-06-22T03:20:43;6.80;;;5.07;;
22336;SDS011;14992;50.844;4.418;2023-06-22T03:23:12;7.97;;;5.07;;
22336;SDS011;14992;50.844;4.418;2023-06-22T03:25:42;7.80;;;4.70;;
22336;SDS011;14992;50.844;4.418;2023-06-22T03:28:13;7.82;;;4.72;;
22336;SDS011;14992;50.844;4.418;2023-06-22T03:30:42;7.32;;;5.25;;
22336;SDS011;14992;50.844;4.418;2023-06-22T03:33:11;10.02;;;5.40;;
22336;SDS011;14992;50.844;4.418;2023-06-22T03:35:40;7.57;;;4.97;;
22336;SDS011;14992;50.844;4.418;2023-06-22T03:38:11;8.55;;;4.78;;
22336;SDS011;14992;50.844;4.418;2023-06-22T03:40:39;8.25;;;5.38;;
22336;SDS011;14992;50.844;4.418;2023-06-22T03:43:08;10.80;;;5.93;;
22336;SDS011;14992;50.844;4.418;2023-06-22T03:45:39;8.43;;;4.78;;
22336;SDS011;14992;50.844;4.418;2023-06-22T03:48:08;7.10;;;4.47;;
22336;SDS011;14992;50.844;4.418;2023-06-22T03:50:38;9.68;;;5.53;;
22336;SDS011;14992;50.844;4.418;2023-06-22T03:53:11;7.82;;;5.45;;
22336;SDS011;14992;50.844;4.418;2023-06-22T03:55:47;8.07;;;5.00;;
22336;SDS011;14992;50.844;4.418;2023-06-22T03:58:17;8.70;;;5.57;;
22336;SDS011;14992;50.844;4.418;2023-06-22T04:00:49;7.75;;;4.78;;
22336;SDS011;14992;50.844;4.418;2023-06-22T04:03:18;6.03;;;4.88;;
22336;SDS011;14992;50.844;4.418;2023-06-22T04:05:48;11.18;;;5.07;;
22336;SDS011;14992;50.844;4.418;2023-06-22T04:08:18;8.57;;;5.15;;
22336;SDS011;14992;50.844;4.418;2023-06-22T04:10:47;7.47;;;5.45;;
22336;SDS011;14992;50.844;4.418;2023-06-22T04:13:16;7.60;;;5.53;;
22336;SDS011;14992;50.844;4.418;2023-06-22T04:15:47;8.30;;;5.82;;
22336;SDS011;14992;50.844;4.418;2023-06-22T04:18:17;7.63;;;5.63;;
22336;SDS011;14992;50.844;4.418;2023-06-22T04:20:46;10.68;;;7.00;;
22336;SDS011;14992;50.844;4.418;2023-06-22T04:23:15;11.63;;;6.78;;
22336;SDS011;14992;50.844;4.418;2023-06-22T04:25:44;9.07;;;6.25;;
22336;SDS011;14992;50.844;4.418;2023-06-22T04:28:13;9.23;;;5.97;;
22336;SDS011;14992;50.844;4.418;2023-06-22T04:30:42;9.00;;;6.20;;
22336;SDS011;14992;50.844;4.418;2023-06-22T04:33:15;9.30;;;6.18;;
22336;SDS011;14992;50.844;4.418;2023-06-22T04:35:45;11.63;;;6.65;;
22336;SDS011;14992;50.844;4.418;2023-06-22T04:38:14;9.45;;;6.20;;
22336;SDS011;14992;50.844;4.418;2023-06-22T04:40:43;9.18;;;6.30;;
22336;SDS011;14992;50.844;4.418;2023-06-22T04:43:12;9.45;;;6.53;;
22336;SDS011;14992;50.844;4.418;2023-06-22T04:45:41;8.90;;;6.25;;
22336;SDS011;14992;50.844;4.418;2023-06-22T04:48:12;10.32;;;6.10;;
22336;SDS011;14992;50.844;4.418;2023-06-22T04:50:44;11.77;;;6.13;;
22336;SDS011;14992;50.844;4.418;2023-06-22T04:53:13;10.65;;;7.45;;
22336;SDS011;14992;50.844;4.418;2023-06-22T04:55:42;11.57;;;7.38;;
22336;SDS011;14992;50.844;4.418;2023-06-22T04:58:15;10.00;;;6.63;;
22336;SDS011;14992;50.844;4.418;2023-06-22T05:00:46;11.77;;;7.57;;
22336;SDS011;14992;50.844;4.418;2023-06-22T05:03:19;11.88;;;8.13;;
22336;SDS011;14992;50.844;4.418;2023-06-22T05:05:49;11.13;;;8.32;;
22336;SDS011;14992;50.844;4.418;2023-06-22T05:08:18;10.70;;;6.93;;
22336;SDS011;14992;50.844;4.418;2023-06-22T05:10:47;12.90;;;6.97;;
22336;SDS011;14992;50.844;4.418;2023-06-22T05:13:31;11.75;;;7.70;;
22336;SDS011;14992;50.844;4.418;2023-06-22T05:16:00;10.38;;;6.72;;
22336;SDS011;14992;50.844;4.418;2023-06-22T05:18:31;10.63;;;7.55;;
22336;SDS011;14992;50.844;4.418;2023-06-22T05:21:01;10.48;;;7.18;;
22336;SDS011;14992;50.844;4.418;2023-06-22T05:23:30;10.30;;;7.38;;
22336;SDS011;14992;50.844;4.418;2023-06-22T05:25:59;11.02;;;7.50;;
22336;SDS011;14992;50.844;4.418;2023-06-22T05:28:28;12.27;;;7.78;;
22336;SDS011;14992;50.844;4.418;2023-06-22T05:30:57;14.27;;;8.23;;
22336;SDS011;14992;50.844;4.418;2023-06-22T05:33:26;15.48;;;9.05;;
22336;SDS011;14992;50.844;4.418;2023-06-22T05:35:54;13.38;;;8.38;;
22336;SDS011;14992;50.844;4.418;2023-06-22T05:38:25;17.73;;;10.45;;
22336;SDS011;14992;50.844;4.418;2023-06-22T05:40:56;15.77;;;10.10;;
22336;SDS011;14992;50.844;4.418;2023-06-22T05:43:32;16.63;;;10.55;;
22336;SDS011;14992;50.844;4.418;2023-06-22T05:46:02;16.25;;;9.98;;
22336;SDS011;14992;50.844;4.418;2023-06-22T05:48:32;19.83;;;10.65;;
22336;SDS011;14992;50.844;4.418;2023-06-22T05:51:01;17.10;;;10.73;;
22336;SDS011;14992;50.844;4.418;2023-06-22T05:53:31;18.38;;;11.20;;
22336;SDS011;14992;50.844;4.418;2023-06-22T05:56:00;16.80;;;11.77;;
22336;SDS011;14992;50.844;4.418;2023-06-22T05:58:29;17.05;;;11.07;;
22336;SDS011;14992;50.844;4.418;2023-06-22T06:00:57;19.33;;;12.27;;
22336;SDS011;14992;50.844;4.418;2023-06-22T06:03:28;18.00;;;11.27;;
22336;SDS011;14992;50.844;4.418;2023-06-22T06:05:57;18.10;;;11.60;;
22336;SDS011;14992;50.844;4.418;2023-06-22T06:08:26;21.30;;;12.25;;
22336;SDS011;14992;50.844;4.418;2023-06-22T06:10:57;19.67;;;12.60;;
22336;SDS011;14992;50.844;4.418;2023-06-22T06:13:25;22.02;;;11.75;;
22336;SDS011;14992;50.844;4.418;2023-06-22T06:15:55;23.70;;;13.05;;
22336;SDS011;14992;50.844;4.418;2023-06-22T06:18:26;18.27;;;12.35;;
22336;SDS011;14992;50.844;4.418;2023-06-22T06:20:55;21.38;;;13.23;;
22336;SDS011;14992;50.844;4.418;2023-06-22T06:23:24;20.98;;;12.32;;
22336;SDS011;14992;50.844;4.418;2023-06-22T06:25:53;19.00;;;11.95;;
22336;SDS011;14992;50.844;4.418;2023-06-22T06:28:24;21.52;;;12.95;;
22336;SDS011;14992;50.844;4.418;2023-06-22T06:30:53;21.92;;;13.10;;
22336;SDS011;14992;50.844;4.418;2023-06-22T06:33:22;19.80;;;11.93;;
22336;SDS011;14992;50.844;4.418;2023-06-22T06:35:52;18.48;;;12.20;;
22336;SDS011;14992;50.844;4.418;2023-06-22T06:38:22;21.13;;;13.05;;
22336;SDS011;14992;50.844;4.418;2023-06-22T06:40:51;31.08;;;13.77;;
22336;SDS011;14992;50.844;4.418;2023-06-22T06:43:20;22.35;;;12.30;;
22336;SDS011;14992;50.844;4.418;2023-06-22T06:45:51;23.58;;;14.20;;
22336;SDS011;14992;50.844;4.418;2023-06-22T06:48:23;19.77;;;13.93;;
22336;SDS011;14992;50.844;4.418;2023-06-22T06:50:52;20.45;;;12.63;;
22336;SDS011;14992;50.844;4.418;2023-06-22T06:53:21;19.88;;;13.80;;
22336;SDS011;14992;50.844;4.418;2023-06-22T06:55:50;19.88;;;12.55;;
22336;SDS011;14992;50.844;4.418;2023-06-22T06:58:19;24.33;;;13.93;;
22336;SDS011;14992;50.844;4.418;2023-06-22T07:00:47;20.02;;;13.15;;
22336;SDS011;14992;50.844;4.418;2023-06-22T07:03:19;19.48;;;13.07;;
22336;SDS011;14992;50.844;4.418;2023-06-22T07:05:47;21.60;;;12.95;;
22336;SDS011;14992;50.844;4.418;2023-06-22T07:08:16;17.90;;;13.20;;
22336;SDS011;14992;50.844;4.418;2023-06-22T07:10:45;17.88;;;13.25;;
22336;SDS011;14992;50.844;4.418;2023-06-22T07:13:14;16.45;;;12.52;;
22336;SDS011;14992;50.844;4.418;2023-06-22T07:15:43;20.10;;;13.68;;
22336;SDS011;14992;50.844;4.418;2023-06-22T07:18:12;21.02;;;13.27;;
22336;SDS011;14992;50.844;4.418;2023-06-22T07:20:43;18.17;;;12.05;;
22336;SDS011;14992;50.844;4.418;2023-06-22T07:23:12;17.65;;;13.38;;
22336;SDS011;14992;50.844;4.418;2023-06-22T07:25:41;17.92;;;13.60;;
22336;SDS011;14992;50.844;4.418;2023-06-22T07:28:09;19.02;;;12.63;;
22336;SDS011;14992;50.844;4.418;2023-06-22T07:30:38;18.20;;;12.73;;
22336;SDS011;14992;50.844;4.418;2023-06-22T07:33:07;18.75;;;13.07;;
22336;SDS011;14992;50.844;4.418;2023-06-22T07:35:36;19.00;;;13.02;;
22336;SDS011;14992;50.844;4.418;2023-06-22T07:38:07;20.27;;;13.35;;
22336;SDS011;14992;50.844;4.418;2023-06-22T07:40:36;19.33;;;12.85;;
22336;SDS011;14992;50.844;4.418;2023-06-22T07:43:06;19.33;;;12.10;;
22336;SDS011;14992;50.844;4.418;2023-06-22T07:45:34;18.77;;;12.30;;
22336;SDS011;14992;50.844;4.418;2023-06-22T07:48:03;16.60;;;12.90;;
22336;SDS011;14992;50.844;4.418;2023-06-22T07:50:32;21.92;;;13.75;;
22336;SDS011;14992;50.844;4.418;2023-06-22T07:53:02;19.17;;;13.05;;
22336;SDS011;14992;50.844;4.418;2023-06-22T07:55:32;16.83;;;12.43;;
22336;SDS011;14992;50.844;4.418;2023-06-22T07:58:01;15.85;;;11.32;;
22336;SDS011;14992;50.844;4.418;2023-06-22T08:00:30;18.70;;;12.80;;
22336;SDS011;14992;50.844;4.418;2023-06-22T08:03:00;15.30;;;11.55;;
22336;SDS011;14992;50.844;4.418;2023-06-22T08:05:30;16.88;;;12.43;;
22336;SDS011;14992;50.844;4.418;2023-06-22T08:07:59;21.35;;;12.85;;
22336;SDS011;14992;50.844;4.418;2023-06-22T08:10:28;22.02;;;13.15;;
22336;SDS011;14992;50.844;4.418;2023-06-22T08:12:58;19.58;;;14.45;;
22336;SDS011;14992;50.844;4.418;2023-06-22T08:15:27;16.83;;;12.43;;
22336;SDS011;14992;50.844;4.418;2023-06-22T08:17:57;18.85;;;13.35;;
22336;SDS011;14992;50.844;4.418;2023-06-22T08:20:27;22.70;;;12.52;;
22336;SDS011;14992;50.844;4.418;2023-06-22T08:22:56;16.75;;;12.35;;
22336;SDS011;14992;50.844;4.418;2023-06-22T08:25:36;18.80;;;12.50;;
22336;SDS011;14992;50.844;4.418;2023-06-22T08:28:07;16.98;;;12.48;;
22336;SDS011;14992;50.844;4.418;2023-06-22T08:30:36;17.20;;;12.55;;
22336;SDS011;14992;50.844;4.418;2023-06-22T08:33:05;18.33;;;12.75;;
22336;SDS011;14992;50.844;4.418;2023-06-22T08:35:35;18.95;;;12.25;;
22336;SDS011;14992;50.844;4.418;2023-06-22T08:38:03;17.40;;;12.50;;
22336;SDS011;14992;50.844;4.418;2023-06-22T08:40:33;16.77;;;11.90;;
22336;SDS011;14992;50.844;4.418;2023-06-22T08:43:01;17.30;;;12.20;;
22336;SDS011;14992;50.844;4.418;2023-06-22T08:45:32;13.93;;;11.55;;
22336;SDS011;14992;50.844;4.418;2023-06-22T08:48:01;15.93;;;13.20;;
22336;SDS011;14992;50.844;4.418;2023-06-22T08:50:30;19.38;;;12.63;;
22336;SDS011;14992;50.844;4.418;2023-06-22T08:52:59;15.18;;;11.15;;
22336;SDS011;14992;50.844;4.418;2023-06-22T08:55:28;21.85;;;12.45;;
22336;SDS011;14992;50.844;4.418;2023-06-22T08:57:58;16.65;;;11.85;;
22336;SDS011;14992;50.844;4.418;2023-06-22T09:00:27;19.40;;;12.32;;
22336;SDS011;14992;50.844;4.418;2023-06-22T09:03:01;18.52;;;12.57;;
22336;SDS011;14992;50.844;4.418;2023-06-22T09:05:30;20.70;;;14.32;;
22336;SDS011;14992;50.844;4.418;2023-06-22T09:08:00;15.45;;;12.90;;
22336;SDS011;14992;50.844;4.418;2023-06-22T09:10:29;17.00;;;13.20;;
22336;SDS011;14992;50.844;4.418;2023-06-22T09:12:58;15.90;;;12.90;;
22336;SDS011;14992;50.844;4.418;2023-06-22T09:15:27;19.67;;;12.80;;
22336;SDS011;14992;50.844;4.418;2023-06-22T09:17:58;14.60;;;11.00;;
22336;SDS011;14992;50.844;4.418;2023-06-22T09:20:28;13.80;;;10.68;;
22336;SDS011;14992;50.844;4.418;2023-06-22T09:22:58;17.58;;;12.32;;
22336;SDS011;14992;50.844;4.418;2023-06-22T09:25:27;16.85;;;12.13;;
22336;SDS011;14992;50.844;4.418;2023-06-22T09:27:56;14.60;;;12.27;;
22336;SDS011;14992;50.844;4.418;2023-06-22T09:30:25;15.88;;;11.02;;
22336;SDS011;14992;50.844;4.418;2023-06-22T09:32:55;16.52;;;12.20;;
22336;SDS011;14992;50.844;4.418;2023-06-22T09:35:24;16.77;;;12.38;;
22336;SDS011;14992;50.844;4.418;2023-06-22T09:37:54;14.15;;;11.43;;
22336;SDS011;14992;50.844;4.418;2023-06-22T09:40:23;22.15;;;13.68;;
22336;SDS011;14992;50.844;4.418;2023-06-22T09:42:52;18.00;;;13.13;;
22336;SDS011;14992;50.844;4.418;2023-06-22T09:45:20;18.77;;;11.73;;
22336;SDS011;14992;50.844;4.418;2023-06-22T09:47:50;23.13;;;14.82;;
22336;SDS011;14992;50.844;4.418;2023-06-22T09:50:19;21.88;;;13.63;;
22336;SDS011;14992;50.844;4.418;2023-06-22T09:52:48;19.60;;;13.75;;
22336;SDS011;14992;50.844;4.418;2023-06-22T09:55:24;19.05;;;11.95;;
22336;SDS011;14992;50.844;4.418;2023-06-22T09:57:54;19.35;;;12.10;;
22336;SDS011;14992;50.844;4.418;2023-06-22T10:00:24;17.02;;;11.65;;
22336;SDS011;14992;50.844;4.418;2023-06-22T10:02:55;22.15;;;13.95;;
22336;SDS011;14992;50.844;4.418;2023-06-22T10:05:27;19.58;;;13.85;;
22336;SDS011;14992;50.844;4.418;2023-06-22T10:07:57;23.33;;;14.10;;
22336;SDS011;14992;50.844;4.418;2023-06-22T10:10:27;19.35;;;12.90;;
22336;SDS011;14992;50.844;4.418;2023-06-22T10:12:56;26.15;;;12.48;;
22336;SDS011;14992;50.844;4.418;2023-06-22T10:15:30;18.58;;;13.95;;
22336;SDS011;14992;50.844;4.418;2023-06-22T10:17:59;20.85;;;14.13;;
22336;SDS011;14992;50.844;4.418;2023-06-22T10:20:28;24.35;;;15.27;;
22336;SDS011;14992;50.844;4.418;2023-06-22T10:22:57;22.52;;;15.40;;
22336;SDS011;14992;50.844;4.418;2023-06-22T10:25:29;22.67;;;15.82;;
22336;SDS011;14992;50.844;4.418;2023-06-22T10:27:58;23.52;;;16.50;;
22336;SDS011;14992;50.844;4.418;2023-06-22T10:30:27;22.90;;;16.80;;
22336;SDS011;14992;50.844;4.418;2023-06-22T10:32:57;21.95;;;16.83;;
22336;SDS011;14992;50.844;4.418;2023-06-22T10:35:25;20.75;;;15.02;;
22336;SDS011;14992;50.844;4.418;2023-06-22T10:37:55;19.77;;;14.50;;
22336;SDS011;14992;50.844;4.418;2023-06-22T10:40:24;23.50;;;16.13;;
22336;SDS011;14992;50.844;4.418;2023-06-22T10:42:54;27.77;;;16.40;;
22336;SDS011;14992;50.844;4.418;2023-06-22T10:45:23;24.35;;;16.73;;
22336;SDS011;14992;50.844;4.418;2023-06-22T10:47:52;28.33;;;19.67;;
22336;SDS011;14992;50.844;4.418;2023-06-22T10:50:21;26.77;;;17.80;;
22336;SDS011;14992;50.844;4.418;2023-06-22T10:52:51;27.88;;;19.52;;
22336;SDS011;14992;50.844;4.418;2023-06-22T10:55:25;26.45;;;17.90;;
22336;SDS011;14992;50.844;4.418;2023-06-22T10:58:07;26.15;;;18.02;;
22336;SDS011;14992;50.844;4.418;2023-06-22T11:00:39;27.70;;;19.27;;
22336;SDS011;14992;50.844;4.418;2023-06-22T11:03:08;28.92;;;20.10;;
22336;SDS011;14992;50.844;4.418;2023-06-22T11:05:39;27.73;;;19.95;;
22336;SDS011;14992;50.844;4.418;2023-06-22T11:08:08;32.10;;;21.70;;
22336;SDS011;14992;50.844;4.418;2023-06-22T11:10:37;32.13;;;22.17;;
22336;SDS011;14992;50.844;4.418;2023-06-22T11:13:07;32.45;;;21.65;;
22336;SDS011;14992;50.844;4.418;2023-06-22T11:15:39;35.95;;;23.70;;
22336;SDS011;14992;50.844;4.418;2023-06-22T11:18:08;34.15;;;23.33;;
22336;SDS011;14992;50.844;4.418;2023-06-22T11:20:37;35.05;;;22.10;;
22336;SDS011;14992;50.844;4.418;2023-06-22T11:23:07;36.15;;;23.95;;
22336;SDS011;14992;50.844;4.418;2023-06-22T11:25:36;36.88;;;24.55;;
22336;SDS011;14992;50.844;4.418;2023-06-22T11:28:05;36.45;;;22.83;;
22336;SDS011;14992;50.844;4.418;2023-06-22T11:30:35;36.47;;;25.05;;
22336;SDS011;14992;50.844;4.418;2023-06-22T11:33:04;35.13;;;23.73;;
22336;SDS011;14992;50.844;4.418;2023-06-22T11:35:33;36.95;;;23.63;;
22336;SDS011;14992;50.844;4.418;2023-06-22T11:38:02;37.63;;;23.63;;
22336;SDS011;14992;50.844;4.418;2023-06-22T11:40:31;37.60;;;23.35;;
22336;SDS011;14992;50.844;4.418;2023-06-22T11:43:00;39.15;;;24.30;;
22336;SDS011;14992;50.844;4.418;2023-06-22T11:45:29;29.85;;;20.88;;
22336;SDS011;14992;50.844;4.418;2023-06-22T11:48:00;36.88;;;24.05;;
22336;SDS011;14992;50.844;4.418;2023-06-22T11:50:29;34.60;;;23.27;;
22336;SDS011;14992;50.844;4.418;2023-06-22T11:53:02;31.67;;;23.25;;
22336;SDS011;14992;50.844;4.418;2023-06-22T11:55:31;35.28;;;24.23;;
22336;SDS011;14992;50.844;4.418;2023-06-22T11:58:00;34.03;;;23.08;;
22336;SDS011;14992;50.844;4.418;2023-06-22T12:00:30;34.45;;;23.00;;
22336;SDS011;14992;50.844;4.418;2023-06-22T12:03:17;30.13;;;21.35;;
22336;SDS011;14992;50.844;4.418;2023-06-22T12:08:17;34.60;;;20.58;;
22336;SDS011;14992;50.844;4.418;2023-06-22T12:10:46;30.42;;;19.80;;
22336;SDS011;14992;50.844;4.418;2023-06-22T12:13:15;32.67;;;19.42;;
22336;SDS011;14992;50.844;4.418;2023-06-22T12:15:44;30.80;;;20.92;;
22336;SDS011;14992;50.844;4.418;2023-06-22T12:18:13;31.23;;;19.80;;
22336;SDS011;14992;50.844;4.418;2023-06-22T12:20:43;29.80;;;19.27;;
22336;SDS011;14992;50.844;4.418;2023-06-22T12:23:12;32.55;;;21.17;;
22336;SDS011;14992;50.844;4.418;2023-06-22T12:25:44;32.78;;;20.90;;
22336;SDS011;14992;50.844;4.418;2023-06-22T12:28:13;33.47;;;22.17;;
22336;SDS011;14992;50.844;4.418;2023-06-22T12:30:42;44.50;;;23.92;;
22336;SDS011;14992;50.844;4.418;2023-06-22T12:33:11;36.08;;;23.70;;
22336;SDS011;14992;50.844;4.418;2023-06-22T12:35:40;35.78;;;23.10;;
22336;SDS011;14992;50.844;4.418;2023-06-22T12:38:10;35.33;;;24.05;;
22336;SDS011;14992;50.844;4.418;2023-06-22T12:40:39;37.95;;;24.42;;
22336;SDS011;14992;50.844;4.418;2023-06-22T12:43:08;38.97;;;24.88;;
22336;SDS011;14992;50.844;4.418;2023-06-22T12:45:36;43.38;;;25.92;;
22336;SDS011;14992;50.844;4.418;2023-06-22T12:48:05;35.67;;;23.73;;
22336;SDS011;14992;50.844;4.418;2023-06-22T12:50:35;35.20;;;24.60;;
22336;SDS011;14992;50.844;4.418;2023-06-22T12:53:04;37.95;;;24.63;;
22336;SDS011;14992;50.844;4.418;2023-06-22T12:55:34;42.85;;;26.20;;
22336;SDS011;14992;50.844;4.418;2023-06-22T12:58:03;43.60;;;26.75;;
22336;SDS011;14992;50.844;4.418;2023-06-22T13:00:32;43.88;;;26.75;;
22336;SDS011;14992;50.844;4.418;2023-06-22T13:03:01;42.88;;;27.98;;
22336;SDS011;14992;50.844;4.418;2023-06-22T13:05:30;43.47;;;26.42;;
22336;SDS011;14992;50.844;4.418;2023-06-22T13:08:01;49.20;;;29.45;;
22336;SDS011;14992;50.844;4.418;2023-06-22T13:10:31;48.38;;;28.83;;
22336;SDS011;14992;50.844;4.418;2023-06-22T13:13:04;46.13;;;29.27;;
22336;SDS011;14992;50.844;4.418;2023-06-22T13:15:33;48.20;;;28.55;;
22336;SDS011;14992;50.844;4.418;2023-06-22T13:18:02;47.95;;;30.55;;
22336;SDS011;14992;50.844;4.418;2023-06-22T13:20:31;54.42;;;29.15;;
22336;SDS011;14992;50.844;4.418;2023-06-22T13:23:00;52.13;;;30.42;;
22336;SDS011;14992;50.844;4.418;2023-06-22T13:25:29;55.08;;;31.20;;
22336;SDS011;14992;50.844;4.418;2023-06-22T13:27:58;56.88;;;32.45;;
22336;SDS011;14992;50.844;4.418;2023-06-22T13:30:30;54.85;;;31.00;;
22336;SDS011;14992;50.844;4.418;2023-06-22T13:32:59;54.63;;;32.80;;
22336;SDS011;14992;50.844;4.418;2023-06-22T13:35:28;49.55;;;30.42;;
22336;SDS011;14992;50.844;4.418;2023-06-22T13:37:58;51.15;;;30.45;;
22336;SDS011;14992;50.844;4.418;2023-06-22T13:40:27;43.53;;;27.85;;
22336;SDS011;14992;50.844;4.418;2023-06-22T13:42:55;47.45;;;28.90;;
22336;SDS011;14992;50.844;4.418;2023-06-22T13:45:25;47.35;;;28.67;;
22336;SDS011;14992;50.844;4.418;2023-06-22T13:47:55;44.60;;;29.23;;
22336;SDS011;14992;50.844;4.418;2023-06-22T13:50:25;43.10;;;27.80;;
22336;SDS011;14992;50.844;4.418;2023-06-22T13:52:54;52.83;;;30.35;;
22336;SDS011;14992;50.844;4.418;2023-06-22T13:55:23;44.70;;;26.38;;
22336;SDS011;14992;50.844;4.418;2023-06-22T13:57:52;48.10;;;28.35;;
22336;SDS011;14992;50.844;4.418;2023-06-22T14:00:21;47.17;;;28.33;;
22336;SDS011;14992;50.844;4.418;2023-06-22T14:02:50;42.83;;;27.58;;
22336;SDS011;14992;50.844;4.418;2023-06-22T14:05:20;49.22;;;31.17;;
22336;SDS011;14992;50.844;4.418;2023-06-22T14:07:49;46.72;;;28.52;;
22336;SDS011;14992;50.844;4.418;2023-06-22T14:10:18;53.00;;;28.92;;
22336;SDS011;14992;50.844;4.418;2023-06-22T14:12:47;45.42;;;29.40;;
22336;SDS011;14992;50.844;4.418;2023-06-22T14:15:16;42.03;;;25.58;;
22336;SDS011;14992;50.844;4.418;2023-06-22T14:17:45;47.20;;;28.80;;
22336;SDS011;14992;50.844;4.418;2023-06-22T14:20:14;47.55;;;28.92;;
22336;SDS011;14992;50.844;4.418;2023-06-22T14:22:44;52.75;;;30.75;;
22336;SDS011;14992;50.844;4.418;2023-06-22T14:25:13;53.03;;;31.27;;
22336;SDS011;14992;50.844;4.418;2023-06-22T14:27:42;48.63;;;29.02;;
22336;SDS011;14992;50.844;4.418;2023-06-22T14:30:11;55.75;;;30.20;;
22336;SDS011;14992;50.844;4.418;2023-06-22T14:32:40;49.92;;;30.25;;
22336;SDS011;14992;50.844;4.418;2023-06-22T14:35:12;48.95;;;31.10;;
22336;SDS011;14992;50.844;4.418;2023-06-22T14:37:41;48.40;;;31.38;;
22336;SDS011;14992;50.844;4.418;2023-06-22T14:40:12;49.42;;;31.48;;
22336;SDS011;14992;50.844;4.418;2023-06-22T14:42:41;75.15;;;31.40;;
22336;SDS011;14992;50.844;4.418;2023-06-22T14:45:12;57.80;;;34.63;;
22336;SDS011;14992;50.844;4.418;2023-06-22T14:47:41;52.80;;;32.47;;
22336;SDS011;14992;50.844;4.418;2023-06-22T14:50:11;52.25;;;33.75;;
22336;SDS011;14992;50.844;4.418;2023-06-22T14:52:41;55.47;;;34.97;;